Sunday, February 17, 2019, 3:29 PM EST
Back to Local

KDAW, Skyhaven Airport

Location: Rochester, NH, United States Lat: 43.283
Local Time: 3:29 PM EST (20:29 GMT) Lon: -70.917
Time Zone: US/Eastern Elev: 321 ft

Show me the last for .
Show Decoded

2019-02-17 14:51 METAR KDAW 171951Z AUTO VRB03KT 10SM CLR 00/M14 A3007 RMK AO2 SLP184 T00001144 =
2019-02-17 13:51 METAR KDAW 171851Z AUTO 02004KT 10SM CLR M01/M15 A3004 RMK AO2 SLP173 T10061150
                 =
2019-02-17 12:51 METAR KDAW 171751Z AUTO 00000KT 10SM CLR M01/M16 A3007 RMK AO2 SLP183 T10111161
                 11011 21100 57014 =
2019-02-17 11:51 METAR KDAW 171651Z AUTO 00000KT 10SM CLR M02/M15 A3008 RMK AO2 SLP187 T10221150
                 =
2019-02-17 10:51 METAR KDAW 171551Z AUTO 00000KT 10SM CLR M03/M16 A3010 RMK AO2 SLP194 T10281156
                 =
2019-02-17 09:51 METAR KDAW 171451Z AUTO 00000KT 10SM CLR M04/M16 A3011 RMK AO2 SLP198 T10441156
                 51020 =
2019-02-17 08:51 METAR KDAW 171351Z AUTO 31007KT 10SM CLR M06/M14 A3010 RMK AO2 SLP194 T10611144
                 =
2019-02-17 07:51 METAR KDAW 171251Z AUTO 29003KT 10SM CLR M07/M13 A3007 RMK AO2 SLP185 T10721128
                 =
2019-02-17 06:51 METAR KDAW 171151Z AUTO 00000KT 10SM CLR M09/M13 A3005 RMK AO2 SLP178 T10941133
                 11056 21100 51020 =
2019-02-17 05:51 METAR KDAW 171051Z AUTO 25003KT 10SM CLR M09/M13 A3004 RMK AO2 SLP173 T10891133
                 =
2019-02-17 04:51 METAR KDAW 170951Z AUTO 00000KT 10SM CLR M08/M13 A3001 RMK AO2 SLP165 T10831133
                 =
2019-02-17 03:51 METAR KDAW 170851Z AUTO 32007KT 10SM CLR M07/M13 A2999 RMK AO2 SLP158 T10721133
                 50008 =
2019-02-17 02:51 METAR KDAW 170751Z AUTO 10SM CLR M07/M13 A3000 RMK AO2 SLP159 T10671128 =
2019-02-17 00:51 METAR KDAW 170551Z AUTO 31008G16KT 10SM CLR M06/M13 A2997 RMK AO2 SLP149
                 T10561128 10000 21056 51015 =
2019-02-16 23:51 METAR KDAW 170451Z AUTO 30015G18KT 10SM CLR M05/M13 A2996 RMK AO2 SLP146
                 T10501128 400331050 =
2019-02-16 21:51 METAR KDAW 170251Z AUTO 30011KT 10SM CLR M03/M11 A2992 RMK AO2 SLP134 T10281106
                 53022 =
2019-02-16 20:51 METAR KDAW 170151Z AUTO 31015KT 10SM CLR M02/M10 A2989 RMK AO2 SLP122 T10221100
                 =
2019-02-16 19:51 METAR KDAW 170051Z AUTO 30017G23KT 10SM CLR M01/M10 A2986 RMK AO2 SLP113
                 T10061100 =
2019-02-16 18:51 METAR KDAW 162351Z AUTO 31006KT 10SM CLR 00/M08 A2986 RMK AO2 SLP111 T00001078
                 10028 21006 53030 =
2019-02-16 17:51 METAR KDAW 162251Z AUTO 30008KT 10SM CLR 01/M08 A2982 RMK AO2 SLP099 T00061078 =
2019-02-16 16:51 METAR KDAW 162151Z AUTO 31015G21KT 10SM CLR 02/M07 A2978 RMK AO2 SLP086
                 T00171072 =
2019-02-16 15:51 METAR KDAW 162051Z AUTO 30012G17KT 10SM SCT046 02/M07 A2977 RMK AO2 SLP080
                 T00221072 53014 =

Support USWX by starting your Amazon purchase here.